Aeroporto :
LOGIN :

Iscrizione | Disclaimer

   EN    FR    IT 

 










Sommario :    VFR   VFR Marginale   IFR   IFR Intensivo   IFR Molto Intensivo
Visibilità : 
Base nubi : 
>= 8 km
>= 3000ft
5 / 8 km
1000 / 3000 ft
1500m / 5 km
500 / 1000 ft
800 / 1500m
200 / 500 ft
< 800m
< 200 ft
Simboli :   Temporali  Nebbia  Neve Forte  Precipitazioni Forti  Vento > 20 kt
SIGMETs :   Varie  Temporali  Ghiacco  Turbolenza  Onda orograficha  Ceneri Vulcaniche






- Altitudine del aeroporto : 19 ft
- Codice IATA : LCY


EGLC - London City

ULTIMO METAR :
  • 100750Z AUTO 19006KT 150V240 9999 NCD 08/04 Q1019

METARs OBSOLETI :
  • 100720Z AUTO 16007KT 080V200 9999 NCD 07/03 Q1020
  • 100650Z AUTO 17007KT 150V210 9999 NCD 07/03 Q1020
  • 100620Z AUTO 17006KT 130V200 9999 NCD 06/03 Q1021
  • 100550Z AUTO VRB04KT 9999 NCD 06/03 Q1022
  • 100520Z AUTO 21008KT 170V250 9999 NCD 05/02 Q1022

TAF TAF EGLC
Valido dal 10 a 06 ore il 10 a 15 ore UTC


100459Z 1006/1015 24005KT 9999 FEW030
BECMG 1007/1010 19015G25KT
TEMPO 1010/1015 20020G35KT
TEMPO 1011/1015 7000 RA BKN014
ATIS : +44 20 7646 0224



MetMap, La meteo Aeronautica in un colpo d'occhio ! - Copyright ORBIFLY Dicembre 2007 - Disclaimer

ORBIFLY MET'MAP TEAM :

Programmazione e sviluppo : Alexandra Zaïnal
Concezione : Baudouin d'Aumeries
Aiuto per la programmazione : Marc-Olivier Méhu
Supporto tecnico e logistico : Manuel Goepfert
Aiuto per la traduzione : Arnaldo La Scala

Contatto : metmap@orbifly.com




FONTI E CREDITI :

   NOAA